createdAt,value
2022-07-29T00:02:01.169Z,99404.69
2022-07-29T00:04:29.020Z,99428.84
2022-07-29T00:07:00.491Z,99410.47
2022-07-29T00:10:00.298Z,99293.88
2022-07-29T00:12:27.499Z,99430.59
2022-07-29T00:14:56.610Z,99432.44
2022-07-29T00:17:25.032Z,99415.03
2022-07-29T00:19:52.956Z,99392.69
2022-07-29T00:22:23.310Z,99369.19
2022-07-29T00:24:50.943Z,99392.50
2022-07-29T00:27:19.194Z,99419.41
2022-07-29T00:29:49.893Z,99444.97
2022-07-29T00:32:17.735Z,99429.19
2022-07-29T00:35:04.411Z,99407.69
2022-07-29T00:37:31.893Z,99431.19
2022-07-29T00:39:59.629Z,99432.41
2022-07-29T00:42:29.777Z,99424.88
2022-07-29T00:44:58.542Z,99444.63
2022-07-29T00:47:27.125Z,99410.16
2022-07-29T00:49:55.410Z,99438.47
2022-07-29T00:52:24.777Z,99463.09
2022-07-29T00:54:56.677Z,99458.22
2022-07-29T00:57:26.161Z,99455.50
2022-07-29T00:59:56.282Z,99458.00
2022-07-29T01:02:25.060Z,99463.53
2022-07-29T01:05:00.581Z,99455.00
2022-07-29T01:07:28.778Z,99418.53
2022-07-29T01:10:02.732Z,99429.19
2022-07-29T01:12:35.243Z,99466.22
2022-07-29T01:15:04.325Z,99482.09
2022-07-29T01:17:40.358Z,99484.84
2022-07-29T01:20:38.714Z,99476.22
2022-07-29T01:23:38.066Z,99472.81
2022-07-29T01:26:42.210Z,99467.91
2022-07-29T01:29:38.612Z,99443.59
2022-07-29T01:32:28.514Z,99484.78
2022-07-29T01:35:18.168Z,99475.91
2022-07-29T01:38:06.572Z,99484.75
2022-07-29T01:41:20.149Z,99472.50
2022-07-29T01:44:03.885Z,99482.13
2022-07-29T01:46:38.188Z,99483.94
2022-07-29T01:49:36.856Z,99474.22
2022-07-29T01:52:12.711Z,99436.88
2022-07-29T01:54:58.375Z,99475.38
2022-07-29T01:57:28.935Z,99447.38
2022-07-29T01:59:58.331Z,99465.03
2022-07-29T02:02:27.417Z,99462.47
2022-07-29T02:04:55.657Z,99479.03
2022-07-29T02:07:26.297Z,99481.66
2022-07-29T02:09:54.878Z,99485.94
2022-07-29T02:12:25.172Z,99431.06
2022-07-29T02:14:54.279Z,99488.78
2022-07-29T02:17:38.828Z,99491.56
2022-07-29T02:20:10.145Z,99490.63
2022-07-29T02:22:40.366Z,99459.06
2022-07-29T02:25:13.863Z,99462.31
2022-07-29T02:27:42.782Z,99478.06
2022-07-29T02:30:11.852Z,99474.59
2022-07-29T02:32:41.351Z,99478.06
2022-07-29T02:35:11.117Z,99482.53
2022-07-29T02:37:39.719Z,99504.28
2022-07-29T02:40:12.598Z,99456.06
2022-07-29T02:42:43.571Z,99477.00
2022-07-29T02:45:11.986Z,99458.25
2022-07-29T02:47:50.843Z,99512.38
2022-07-29T02:50:50.584Z,99504.59
2022-07-29T02:53:21.285Z,99502.84
2022-07-29T02:55:56.661Z,99513.22
2022-07-29T02:58:32.803Z,99505.94
2022-07-29T03:01:03.804Z,99507.75
2022-07-29T03:03:40.974Z,99519.34
2022-07-29T03:06:28.237Z,99483.25
2022-07-29T03:09:05.724Z,99499.66
2022-07-29T03:11:42.267Z,99479.72
2022-07-29T03:14:24.446Z,99501.66
2022-07-29T03:16:56.378Z,99509.72
2022-07-29T03:19:23.490Z,99486.22
2022-07-29T03:21:50.688Z,99488.78
2022-07-29T03:24:34.554Z,99519.50
2022-07-29T03:27:02.645Z,99511.66
2022-07-29T03:29:33.177Z,99479.25
2022-07-29T03:32:03.699Z,99508.78
2022-07-29T03:34:34.988Z,99496.56
2022-07-29T03:37:02.174Z,99504.97
2022-07-29T03:39:34.507Z,99449.13
2022-07-29T03:42:10.299Z,99506.47
2022-07-29T03:44:40.846Z,99482.63
2022-07-29T03:47:15.614Z,99496.56
2022-07-29T03:49:49.682Z,99505.03
2022-07-29T03:52:21.438Z,99499.72
2022-07-29T03:54:50.230Z,99517.22
2022-07-29T03:57:18.311Z,99497.13
2022-07-29T03:59:46.427Z,99521.38
2022-07-29T04:02:14.944Z,99482.66
2022-07-29T04:04:45.056Z,99468.56
2022-07-29T04:07:14.535Z,99519.88
2022-07-29T04:09:41.893Z,99507.78
2022-07-29T04:12:09.562Z,99498.78
2022-07-29T04:14:37.505Z,99517.75
2022-07-29T04:17:05.673Z,99527.22
2022-07-29T04:19:33.476Z,99509.56
2022-07-29T04:22:01.610Z,99526.78
2022-07-29T04:24:29.018Z,99527.72
2022-07-29T04:26:56.504Z,99499.63
2022-07-29T04:29:27.908Z,99528.13
2022-07-29T04:31:58.343Z,99533.25
2022-07-29T04:34:28.202Z,99523.47
2022-07-29T04:36:58.730Z,99528.63
2022-07-29T04:39:32.027Z,99532.13
2022-07-29T04:41:59.518Z,99487.28
2022-07-29T04:44:29.050Z,99507.28
2022-07-29T04:46:59.981Z,99496.84
2022-07-29T04:49:27.585Z,99528.88
2022-07-29T04:51:55.329Z,99543.00
2022-07-29T04:54:22.602Z,99545.16
2022-07-29T04:56:49.818Z,99538.31
2022-07-29T04:59:16.856Z,99536.00
2022-07-29T05:01:44.091Z,99505.31
2022-07-29T05:04:11.278Z,99513.41
2022-07-29T05:06:38.326Z,99488.47
2022-07-29T05:09:05.481Z,99530.50
2022-07-29T05:11:37.388Z,99492.31
2022-07-29T05:14:04.980Z,99465.13
2022-07-29T05:16:31.966Z,99529.53
2022-07-29T05:18:59.195Z,99519.22
2022-07-29T05:21:26.642Z,99477.31
2022-07-29T05:23:54.101Z,99483.81
2022-07-29T05:26:21.970Z,99528.69
2022-07-29T05:28:55.123Z,99528.88
2022-07-29T05:31:22.424Z,99496.19
2022-07-29T05:33:52.677Z,99529.91
2022-07-29T05:36:22.406Z,99496.56
2022-07-29T05:38:49.650Z,99512.69
2022-07-29T05:41:16.814Z,99458.16
2022-07-29T05:43:45.115Z,99533.41
2022-07-29T05:46:15.296Z,99490.34
2022-07-29T05:48:43.157Z,99531.78
2022-07-29T05:51:11.647Z,99521.75
2022-07-29T05:53:39.062Z,99531.47
2022-07-29T05:56:06.919Z,99497.78
2022-07-29T05:58:36.381Z,99529.75
2022-07-29T06:01:03.958Z,99510.00
2022-07-29T06:03:31.453Z,99539.47
2022-07-29T06:05:58.937Z,99532.34
2022-07-29T06:08:26.143Z,99503.28
2022-07-29T06:10:53.341Z,99524.84
2022-07-29T06:13:20.557Z,99529.53
2022-07-29T06:15:47.749Z,99522.25
2022-07-29T06:18:15.072Z,99531.94
2022-07-29T06:20:42.595Z,99525.91
2022-07-29T06:23:12.459Z,99495.97
2022-07-29T06:25:42.076Z,99518.13
2022-07-29T06:28:09.300Z,99494.88
2022-07-29T06:30:36.678Z,99488.44
2022-07-29T06:33:04.434Z,99514.97
2022-07-29T06:35:41.863Z,99522.63
2022-07-29T06:38:33.850Z,99513.47
2022-07-29T06:41:01.084Z,99465.00
2022-07-29T06:43:52.079Z,99506.59
2022-07-29T06:46:22.662Z,99478.16
2022-07-29T06:48:50.884Z,99522.31
2022-07-29T06:51:23.388Z,99510.34
2022-07-29T06:54:00.305Z,99502.34
2022-07-29T06:56:31.685Z,99514.34
2022-07-29T06:59:01.553Z,99511.53
2022-07-29T07:01:32.115Z,99500.19
2022-07-29T07:03:59.236Z,99532.72
2022-07-29T07:06:26.338Z,99504.53
2022-07-29T07:08:53.621Z,99518.59
2022-07-29T07:11:21.008Z,99513.38
2022-07-29T07:13:48.298Z,99499.72
2022-07-29T07:16:15.571Z,99519.59
2022-07-29T07:18:46.381Z,99520.19
2022-07-29T07:21:19.277Z,99518.09
2022-07-29T07:23:50.096Z,99499.97
2022-07-29T07:26:17.330Z,99490.13
2022-07-29T07:28:44.487Z,99496.50
2022-07-29T07:31:12.375Z,99491.44
2022-07-29T07:33:39.612Z,99496.38
2022-07-29T07:36:06.738Z,99497.84
2022-07-29T07:38:33.915Z,99477.56
2022-07-29T07:41:02.073Z,99510.38
2022-07-29T07:43:29.346Z,99503.00
2022-07-29T07:45:56.527Z,99528.81
2022-07-29T07:48:23.819Z,99511.78
2022-07-29T07:50:51.750Z,99520.66
2022-07-29T07:53:18.952Z,99499.38
2022-07-29T07:58:34.019Z,99540.28
2022-07-29T08:01:01.248Z,99536.31
2022-07-29T08:03:28.419Z,99517.38
2022-07-29T08:05:55.578Z,99532.06
2022-07-29T08:08:22.902Z,99510.19
2022-07-29T08:11:00.607Z,99540.94
2022-07-29T08:13:31.497Z,99531.91
2022-07-29T08:16:01.198Z,99530.97
2022-07-29T08:18:31.519Z,99536.06
2022-07-29T08:20:59.443Z,99512.97
2022-07-29T08:23:32.938Z,99539.00
2022-07-29T08:26:14.891Z,99532.50
2022-07-29T08:28:46.910Z,99490.00
2022-07-29T08:31:15.284Z,99532.34
2022-07-29T08:33:42.890Z,99541.00
2022-07-29T08:36:10.839Z,99512.88
2022-07-29T08:38:37.980Z,99524.06
2022-07-29T08:41:05.018Z,99539.09
2022-07-29T08:43:33.210Z,99544.81
2022-07-29T08:46:01.485Z,99543.50
2022-07-29T08:48:28.668Z,99518.00
2022-07-29T08:50:57.363Z,99541.16
2022-07-29T08:53:27.831Z,99497.34
2022-07-29T08:55:55.957Z,99514.19
2022-07-29T08:58:24.976Z,99515.03
2022-07-29T09:00:57.869Z,99531.50
2022-07-29T09:03:27.889Z,99504.28
2022-07-29T09:05:55.531Z,99486.44
2022-07-29T09:08:24.337Z,99514.66
2022-07-29T09:10:52.508Z,99511.72
2022-07-29T09:13:20.276Z,99467.66
2022-07-29T09:15:47.360Z,99502.94
2022-07-29T09:18:34.227Z,99530.63
2022-07-29T09:21:20.079Z,99501.16
2022-07-29T09:24:11.958Z,99519.88
2022-07-29T09:26:42.307Z,99517.81
2022-07-29T09:29:18.623Z,99510.09
2022-07-29T09:31:54.028Z,99519.81
2022-07-29T09:34:29.280Z,99513.78
2022-07-29T09:36:57.763Z,99528.69
2022-07-29T09:39:34.635Z,99536.44
2022-07-29T09:42:06.930Z,99520.47
2022-07-29T09:44:51.389Z,99542.38
2022-07-29T09:47:20.079Z,99529.22
2022-07-29T09:50:01.110Z,99525.88
2022-07-29T09:52:31.573Z,99526.34
2022-07-29T09:55:09.314Z,99517.91
2022-07-29T09:57:38.100Z,99521.63
2022-07-29T10:00:09.701Z,99529.06
2022-07-29T10:02:41.901Z,99527.47
2022-07-29T10:05:20.160Z,99542.75
2022-07-29T10:08:08.665Z,99531.13
2022-07-29T10:10:41.075Z,99525.91
2022-07-29T10:13:16.388Z,99528.59
2022-07-29T10:15:46.939Z,99501.16
2022-07-29T10:18:15.681Z,99516.72
2022-07-29T10:20:43.126Z,99511.94
2022-07-29T10:23:11.048Z,99526.00
2022-07-29T10:25:38.178Z,99516.97
2022-07-29T10:28:06.982Z,99533.63
2022-07-29T10:30:34.668Z,99519.25
2022-07-29T10:33:12.873Z,99524.19
2022-07-29T10:36:05.531Z,99528.16
2022-07-29T10:38:48.521Z,99525.28
2022-07-29T10:41:36.283Z,99519.38
2022-07-29T10:44:19.380Z,99508.63
2022-07-29T10:46:50.592Z,99510.03
2022-07-29T10:49:18.915Z,99513.06
2022-07-29T10:52:00.004Z,99525.81
2022-07-29T10:54:52.700Z,99527.97
2022-07-29T10:57:53.207Z,99502.34
2022-07-29T11:00:17.299Z,99523.50
2022-07-29T11:02:50.152Z,99493.31
2022-07-29T11:05:20.408Z,99535.16
2022-07-29T11:08:21.320Z,99539.84
2022-07-29T11:11:18.504Z,99531.75
2022-07-29T11:13:48.830Z,99444.09
2022-07-29T11:16:17.050Z,99522.03
2022-07-29T11:19:15.897Z,99531.91
2022-07-29T11:21:58.355Z,99528.66
2022-07-29T11:24:34.768Z,99523.53
2022-07-29T11:27:21.657Z,99526.41
2022-07-29T11:29:52.168Z,99538.50
2022-07-29T11:32:22.707Z,99526.81
2022-07-29T11:35:17.269Z,99519.38
2022-07-29T11:37:52.821Z,99516.91
2022-07-29T11:40:24.911Z,99538.66
2022-07-29T11:42:52.788Z,99522.63
2022-07-29T11:45:42.697Z,99515.91
2022-07-29T11:48:29.167Z,99520.53
2022-07-29T11:50:59.642Z,99537.59
2022-07-29T11:53:29.246Z,99500.63
2022-07-29T11:56:00.906Z,99542.34
2022-07-29T11:58:29.566Z,99548.06
2022-07-29T12:00:57.870Z,99539.31
2022-07-29T12:03:35.249Z,99538.91
2022-07-29T12:06:17.507Z,99530.53
2022-07-29T12:08:45.988Z,99529.41
2022-07-29T12:11:23.453Z,99533.84
2022-07-29T12:13:52.508Z,99528.88
2022-07-29T12:16:29.160Z,99541.63
2022-07-29T12:19:05.111Z,99538.75
2022-07-29T12:21:52.310Z,99526.38
2022-07-29T12:24:27.005Z,99538.00
2022-07-29T12:26:55.679Z,99546.91
2022-07-29T12:29:34.485Z,99533.34
2022-07-29T12:32:05.549Z,99528.59
2022-07-29T12:34:33.445Z,99555.16
2022-07-29T12:37:02.164Z,99534.22
2022-07-29T12:39:29.679Z,99544.78
2022-07-29T12:42:04.371Z,99534.66
2022-07-29T12:45:05.103Z,99552.03
2022-07-29T12:47:32.831Z,99546.63
2022-07-29T12:50:11.814Z,99539.81
2022-07-29T12:52:41.524Z,99529.78
2022-07-29T12:55:09.192Z,99498.16
2022-07-29T12:57:51.705Z,99512.16
2022-07-29T13:00:26.288Z,99545.88
2022-07-29T13:03:01.000Z,99491.31
2022-07-29T13:05:49.146Z,99537.44
2022-07-29T13:08:22.108Z,99544.47
2022-07-29T13:10:49.895Z,99519.13
2022-07-29T13:13:17.154Z,99500.38
2022-07-29T13:15:48.128Z,99519.44
2022-07-29T13:18:32.235Z,99539.50
2022-07-29T13:21:12.747Z,99526.44
2022-07-29T13:23:40.667Z,99518.81
2022-07-29T13:26:12.677Z,99532.72
2022-07-29T13:28:44.252Z,99503.78
2022-07-29T13:31:14.345Z,99528.19
2022-07-29T13:33:41.708Z,99525.66
2022-07-29T13:36:09.146Z,99502.38
2022-07-29T13:38:36.139Z,99507.94
2022-07-29T13:41:03.293Z,99526.47
2022-07-29T13:43:30.717Z,99508.59
2022-07-29T13:45:57.983Z,99539.28
2022-07-29T13:48:25.333Z,99503.28
2022-07-29T13:50:52.693Z,99547.50
2022-07-29T13:53:20.268Z,99540.94
2022-07-29T13:55:55.537Z,99554.25
2022-07-29T13:58:24.766Z,99540.47
2022-07-29T14:00:52.400Z,99522.91
2022-07-29T14:03:19.519Z,99543.84
2022-07-29T14:05:46.607Z,99532.50
2022-07-29T14:08:13.691Z,99544.69
2022-07-29T14:10:41.086Z,99541.03
2022-07-29T14:13:24.250Z,99542.06
2022-07-29T14:15:54.391Z,99534.66
2022-07-29T14:18:21.898Z,99547.50
2022-07-29T14:20:49.306Z,99520.06
2022-07-29T14:23:16.541Z,99539.81
2022-07-29T14:25:43.859Z,99515.59
2022-07-29T14:28:11.648Z,99546.69
2022-07-29T14:30:41.799Z,99531.84
2022-07-29T14:33:09.251Z,99525.22
2022-07-29T14:35:36.358Z,99500.81
2022-07-29T14:38:03.675Z,99519.69
2022-07-29T14:40:30.772Z,99503.41
2022-07-29T14:42:57.878Z,99527.72
2022-07-29T14:45:25.359Z,99521.47
2022-07-29T14:47:56.449Z,99525.69
2022-07-29T14:50:31.462Z,99523.22
2022-07-29T14:53:02.551Z,99522.66
2022-07-29T14:55:30.012Z,99522.75
2022-07-29T14:58:06.011Z,99525.09
2022-07-29T15:00:35.118Z,99486.63
2022-07-29T15:03:03.033Z,99512.88
2022-07-29T15:05:32.277Z,99523.19
2022-07-29T15:08:00.540Z,99534.63
2022-07-29T15:10:28.317Z,99505.03
2022-07-29T15:12:57.087Z,99498.69
2022-07-29T15:15:24.478Z,99508.31
2022-07-29T15:17:51.766Z,99517.41
2022-07-29T15:20:19.005Z,99523.22
2022-07-29T15:22:46.086Z,99518.47
2022-07-29T15:25:13.457Z,99527.31
2022-07-29T15:27:41.627Z,99529.47
2022-07-29T15:30:32.898Z,99507.25
2022-07-29T15:33:04.696Z,99534.09
2022-07-29T15:35:32.004Z,99527.31
2022-07-29T15:37:59.328Z,99520.09
2022-07-29T15:40:26.439Z,99532.13
2022-07-29T15:42:53.551Z,99532.13
2022-07-29T15:45:20.756Z,99537.88
2022-07-29T15:47:47.860Z,99522.47
2022-07-29T15:50:16.911Z,99502.47
2022-07-29T15:52:44.380Z,99491.78
2022-07-29T15:55:11.851Z,99498.03
2022-07-29T15:57:40.991Z,99533.56
2022-07-29T16:00:09.047Z,99534.06
2022-07-29T16:02:36.451Z,99524.59
2022-07-29T16:05:04.104Z,99526.81
2022-07-29T16:07:37.846Z,99535.31
2022-07-29T16:10:05.466Z,99504.78
2022-07-29T16:12:32.486Z,99546.22
2022-07-29T16:14:59.679Z,99526.81
2022-07-29T16:17:27.774Z,99516.03
2022-07-29T16:19:54.837Z,99492.31
2022-07-29T16:22:21.920Z,99529.25
2022-07-29T16:24:48.895Z,99551.84
2022-07-29T16:27:16.075Z,99544.81
2022-07-29T16:29:43.875Z,99525.53
2022-07-29T16:32:11.164Z,99527.63
2022-07-29T16:34:38.338Z,99554.88
2022-07-29T16:37:05.873Z,99541.13
2022-07-29T16:39:33.085Z,99553.94
2022-07-29T16:42:02.248Z,99536.06
2022-07-29T16:44:30.121Z,99555.50
2022-07-29T16:46:58.758Z,99555.03
2022-07-29T16:49:27.512Z,99559.44
2022-07-29T16:51:55.019Z,99566.22
2022-07-29T16:54:22.230Z,99553.03
2022-07-29T16:56:49.410Z,99564.66
2022-07-29T16:59:16.518Z,99565.00
2022-07-29T17:01:43.728Z,99560.56
2022-07-29T17:04:12.147Z,99575.56
2022-07-29T17:06:40.872Z,99573.81
2022-07-29T17:09:09.644Z,99575.19
2022-07-29T17:11:52.882Z,99554.69
2022-07-29T17:14:27.072Z,99575.31
2022-07-29T17:17:01.000Z,99586.19
2022-07-29T17:19:32.193Z,99583.72
2022-07-29T17:22:08.436Z,99582.81
2022-07-29T17:24:38.333Z,99564.75
2022-07-29T17:27:06.277Z,99585.09
2022-07-29T17:29:34.961Z,99557.75
2022-07-29T17:32:02.114Z,99587.41
2022-07-29T17:34:29.165Z,99588.69
2022-07-29T17:36:56.815Z,99586.47
2022-07-29T17:39:24.261Z,99586.75
2022-07-29T17:41:51.400Z,99587.84
2022-07-29T17:44:28.691Z,99567.56
2022-07-29T17:46:56.397Z,99505.00
2022-07-29T17:49:23.897Z,99597.25
2022-07-29T17:51:51.012Z,99605.50
2022-07-29T17:54:18.018Z,99586.34
2022-07-29T17:56:45.232Z,99606.53
2022-07-29T17:59:12.274Z,99603.06
2022-07-29T18:01:41.557Z,99589.03
2022-07-29T18:04:09.348Z,99596.53
2022-07-29T18:06:36.421Z,99546.56
2022-07-29T18:09:04.742Z,99591.91
2022-07-29T18:11:32.656Z,99583.50
2022-07-29T18:13:59.625Z,99565.66
2022-07-29T18:16:29.820Z,99590.13
2022-07-29T18:18:57.096Z,99553.50
2022-07-29T18:21:39.325Z,99602.44
2022-07-29T18:24:11.337Z,99596.72
2022-07-29T18:26:39.339Z,99604.75
2022-07-29T18:29:06.785Z,99584.03
2022-07-29T18:31:39.135Z,99574.78
2022-07-29T18:34:07.497Z,99613.56
2022-07-29T18:36:35.029Z,99606.97
2022-07-29T18:39:02.434Z,99625.59
2022-07-29T18:41:30.112Z,99603.94
2022-07-29T18:43:58.020Z,99604.38
2022-07-29T18:46:26.273Z,99621.84
2022-07-29T18:48:54.224Z,99591.56
2022-07-29T18:51:25.209Z,99622.09
2022-07-29T18:53:57.998Z,99619.69
2022-07-29T18:56:29.116Z,99615.66
2022-07-29T18:59:07.023Z,99616.44
2022-07-29T19:01:35.360Z,99631.78
2022-07-29T19:04:03.221Z,99629.22
2022-07-29T19:06:31.817Z,99626.88
2022-07-29T19:09:00.540Z,99607.72
2022-07-29T19:11:31.255Z,99604.59
2022-07-29T19:13:59.221Z,99630.06
2022-07-29T19:16:29.318Z,99615.34
2022-07-29T19:19:01.746Z,99627.22
2022-07-29T19:21:28.926Z,99617.84
2022-07-29T19:24:01.861Z,99599.13
2022-07-29T19:26:46.838Z,99622.75
2022-07-29T19:29:15.187Z,99597.00
2022-07-29T19:31:45.259Z,99620.56
2022-07-29T19:34:12.629Z,99629.59
2022-07-29T19:36:39.793Z,99623.63
2022-07-29T19:39:06.957Z,99588.03
2022-07-29T19:41:34.023Z,99593.63
2022-07-29T19:44:01.145Z,99589.28
2022-07-29T19:46:29.170Z,99622.34
2022-07-29T19:48:56.714Z,99627.66
2022-07-29T19:51:24.320Z,99626.03
2022-07-29T19:53:51.631Z,99632.56
2022-07-29T19:56:19.012Z,99604.75
2022-07-29T19:58:46.567Z,99625.66
2022-07-29T20:01:15.077Z,99629.38
2022-07-29T20:03:42.341Z,99628.63
2022-07-29T20:06:09.466Z,99615.69
2022-07-29T20:08:37.183Z,99628.84
2022-07-29T20:11:04.501Z,99629.09
2022-07-29T20:13:33.241Z,99622.72
2022-07-29T20:16:02.131Z,99633.34
2022-07-29T20:18:29.420Z,99616.88
2022-07-29T20:20:57.734Z,99613.72
2022-07-29T20:23:25.024Z,99587.28
2022-07-29T20:25:52.490Z,99639.78
2022-07-29T20:28:28.464Z,99633.91
2022-07-29T20:30:56.381Z,99633.84
2022-07-29T20:33:23.473Z,99624.59
2022-07-29T20:35:50.558Z,99624.66
2022-07-29T20:38:18.435Z,99637.06
2022-07-29T20:40:46.080Z,99644.38
2022-07-29T20:43:14.977Z,99647.97
2022-07-29T20:45:42.472Z,99640.09
2022-07-29T20:48:14.107Z,99647.09
2022-07-29T20:53:22.125Z,99650.59
2022-07-29T20:55:49.320Z,99664.22
2022-07-29T20:58:16.371Z,99660.94
2022-07-29T21:00:43.589Z,99661.22
2022-07-29T21:03:10.630Z,99670.34
2022-07-29T21:05:38.328Z,99664.44
2022-07-29T21:08:05.695Z,99651.88
2022-07-29T21:10:32.783Z,99659.06
2022-07-29T21:12:59.867Z,99647.16
2022-07-29T21:18:57.829Z,99624.31
2022-07-29T21:22:01.989Z,99534.53
2022-07-29T21:24:36.254Z,99559.69
2022-07-29T21:27:29.238Z,99604.91
2022-07-29T21:29:56.276Z,99686.22
2022-07-29T21:32:27.420Z,99690.72
2022-07-29T21:34:59.172Z,99691.69
2022-07-29T21:37:27.260Z,99684.44
2022-07-29T21:39:54.638Z,99650.44
2022-07-29T21:42:21.710Z,99671.38
2022-07-29T21:44:50.334Z,99664.41
2022-07-29T21:47:18.276Z,99688.19
2022-07-29T21:49:46.728Z,99639.47
2022-07-29T21:52:16.969Z,99680.69
2022-07-29T21:54:45.486Z,99702.50
2022-07-29T21:57:12.580Z,99698.22
2022-07-29T21:59:43.269Z,99666.94
2022-07-29T22:02:11.132Z,99687.81
2022-07-29T22:04:39.351Z,99675.03
2022-07-29T22:07:07.467Z,99676.84
2022-07-29T22:09:36.713Z,99708.50
2022-07-29T22:12:04.197Z,99700.84
2022-07-29T22:14:31.283Z,99716.75
2022-07-29T22:16:58.847Z,99721.28
2022-07-29T22:19:27.334Z,99718.69
2022-07-29T22:21:54.851Z,99711.59
2022-07-29T22:24:21.942Z,99686.44
2022-07-29T22:26:49.057Z,99725.22
2022-07-29T22:29:17.857Z,99711.38
2022-07-29T22:31:45.351Z,99734.25
2022-07-29T22:34:13.500Z,99704.41
2022-07-29T22:36:41.498Z,99700.19
2022-07-29T22:39:08.579Z,99733.59
2022-07-29T22:41:35.727Z,99714.50
2022-07-29T22:44:02.965Z,99741.69
2022-07-29T22:46:30.521Z,99719.13
2022-07-29T22:48:58.507Z,99707.25
2022-07-29T22:51:26.107Z,99729.09
2022-07-29T22:53:53.535Z,99755.53
2022-07-29T22:56:21.291Z,99722.44
2022-07-29T22:58:49.180Z,99746.97
2022-07-29T23:01:37.216Z,99722.75
2022-07-29T23:04:05.633Z,99732.50
2022-07-29T23:06:33.098Z,99745.53
2022-07-29T23:09:00.140Z,99714.34
2022-07-29T23:11:27.206Z,99751.28
2022-07-29T23:13:54.335Z,99718.22
2022-07-29T23:16:26.379Z,99749.78
2022-07-29T23:18:55.013Z,99755.91
2022-07-29T23:21:22.119Z,99716.81
2022-07-29T23:23:49.373Z,99742.22
2022-07-29T23:26:17.012Z,99743.25
2022-07-29T23:28:45.102Z,99728.47
2022-07-29T23:31:13.636Z,99722.50
2022-07-29T23:33:43.669Z,99756.78
2022-07-29T23:36:10.840Z,99742.09
2022-07-29T23:38:41.170Z,99751.66
2022-07-29T23:41:09.907Z,99746.59
2022-07-29T23:43:37.942Z,99746.53
2022-07-29T23:46:05.325Z,99720.09
2022-07-29T23:48:33.879Z,99749.16
2022-07-29T23:51:01.284Z,99734.00
2022-07-29T23:53:29.168Z,99752.38
2022-07-29T23:55:56.767Z,99749.91
2022-07-29T23:58:24.365Z,99746.53
